createdAt,value
2023-12-31T00:02:57.481Z,7.25
2023-12-31T00:08:00.931Z,8.60
2023-12-31T00:13:04.660Z,8.30
2023-12-31T00:18:08.089Z,9.18
2023-12-31T00:23:13.581Z,9.05
2023-12-31T00:28:16.860Z,5.20
2023-12-31T00:33:19.935Z,7.13
2023-12-31T00:38:23.051Z,9.95
2023-12-31T00:43:26.041Z,8.93
2023-12-31T00:48:29.531Z,8.77
2023-12-31T00:53:33.763Z,8.00
2023-12-31T00:58:37.590Z,8.77
2023-12-31T01:03:41.250Z,9.25
2023-12-31T01:08:44.342Z,9.30
2023-12-31T01:13:47.555Z,8.70
2023-12-31T01:18:50.923Z,9.43
2023-12-31T01:23:54.100Z,9.55
2023-12-31T01:28:57.208Z,9.18
2023-12-31T01:34:00.267Z,8.90
2023-12-31T01:39:03.511Z,7.93
2023-12-31T01:44:08.617Z,8.30
2023-12-31T01:49:12.785Z,8.45
2023-12-31T01:54:16.721Z,8.35
2023-12-31T01:59:20.126Z,8.50
2023-12-31T02:04:23.815Z,7.90
2023-12-31T02:09:27.065Z,8.63
2023-12-31T02:14:30.095Z,9.23
2023-12-31T02:19:33.349Z,8.55
2023-12-31T02:24:46.184Z,6.60
2023-12-31T02:29:49.175Z,7.82
2023-12-31T02:34:52.304Z,7.00
2023-12-31T02:39:55.280Z,6.72
2023-12-31T02:44:58.767Z,7.50
2023-12-31T02:50:02.256Z,8.50
2023-12-31T02:55:07.673Z,7.13
2023-12-31T03:00:11.518Z,6.85
2023-12-31T03:05:15.051Z,6.32
2023-12-31T03:10:18.996Z,6.68
2023-12-31T03:15:22.932Z,5.10
2023-12-31T03:20:26.027Z,5.20
2023-12-31T03:25:29.358Z,6.22
2023-12-31T03:30:32.520Z,6.35
2023-12-31T03:35:35.534Z,6.88
2023-12-31T03:40:38.703Z,5.53
2023-12-31T03:45:41.772Z,5.25
2023-12-31T03:50:45.182Z,5.57
2023-12-31T03:55:48.476Z,6.45
2023-12-31T04:00:52.379Z,6.70
2023-12-31T04:05:55.800Z,5.60
2023-12-31T04:10:58.887Z,6.32
2023-12-31T04:16:02.138Z,6.68
2023-12-31T04:21:05.516Z,8.05
2023-12-31T04:26:08.780Z,6.75
2023-12-31T04:31:11.795Z,6.65
2023-12-31T04:36:14.987Z,5.93
2023-12-31T04:41:22.692Z,7.25
2023-12-31T04:46:26.073Z,7.18
2023-12-31T04:51:31.448Z,7.30
2023-12-31T04:56:35.143Z,7.10
2023-12-31T05:01:38.195Z,5.78
2023-12-31T05:06:41.354Z,6.55
2023-12-31T05:11:44.504Z,6.40
2023-12-31T05:16:47.641Z,6.18
2023-12-31T05:21:50.845Z,6.25
2023-12-31T05:26:53.967Z,6.18
2023-12-31T05:31:57.319Z,8.23
2023-12-31T05:37:00.494Z,6.57
2023-12-31T05:42:03.704Z,5.93
2023-12-31T05:47:06.965Z,5.15
2023-12-31T05:52:10.444Z,6.97
2023-12-31T05:57:13.626Z,5.22
2023-12-31T06:02:16.798Z,5.75
2023-12-31T06:07:19.826Z,5.05
2023-12-31T06:12:22.855Z,5.15
2023-12-31T06:17:25.961Z,5.13
2023-12-31T06:22:29.063Z,5.35
2023-12-31T06:27:32.247Z,6.10
2023-12-31T06:32:35.601Z,6.45
2023-12-31T06:37:38.751Z,5.47
2023-12-31T06:42:41.833Z,6.18
2023-12-31T06:47:45.128Z,7.55
2023-12-31T06:52:48.922Z,6.63
2023-12-31T06:57:52.154Z,5.85
2023-12-31T07:02:55.479Z,7.07
2023-12-31T07:07:58.697Z,6.75
2023-12-31T07:13:02.022Z,6.15
2023-12-31T07:18:05.554Z,7.03
2023-12-31T07:23:08.728Z,6.40
2023-12-31T07:28:11.930Z,6.82
2023-12-31T07:33:15.057Z,6.85
2023-12-31T07:38:18.253Z,7.10
2023-12-31T07:43:21.429Z,6.65
2023-12-31T07:48:25.813Z,6.22
2023-12-31T07:53:29.173Z,7.93
2023-12-31T07:58:32.421Z,6.10
2023-12-31T08:03:35.860Z,6.97
2023-12-31T08:08:39.038Z,6.10
2023-12-31T08:13:42.667Z,5.47
2023-12-31T08:18:45.866Z,5.32
2023-12-31T08:23:48.996Z,5.53
2023-12-31T08:28:52.788Z,4.45
2023-12-31T08:33:56.279Z,6.07
2023-12-31T08:38:59.596Z,4.82
2023-12-31T08:44:02.704Z,4.93
2023-12-31T08:49:07.474Z,5.85
2023-12-31T08:54:10.770Z,4.85
2023-12-31T08:59:13.901Z,5.30
2023-12-31T09:04:17.113Z,4.82
2023-12-31T09:09:20.111Z,6.57
2023-12-31T09:14:23.168Z,7.05
2023-12-31T09:19:26.361Z,5.38
2023-12-31T09:24:29.383Z,7.22
2023-12-31T09:29:32.414Z,4.07
2023-12-31T09:34:35.587Z,3.55
2023-12-31T09:39:57.644Z,3.83
2023-12-31T09:45:04.959Z,3.85
2023-12-31T09:50:09.764Z,3.75
2023-12-31T09:55:13.457Z,2.90
2023-12-31T10:00:17.004Z,2.10
2023-12-31T10:05:23.840Z,1.40
2023-12-31T10:10:28.960Z,1.27
2023-12-31T10:15:32.701Z,1.25
2023-12-31T10:20:40.108Z,1.10
2023-12-31T10:25:44.111Z,1.30
2023-12-31T10:30:50.310Z,1.00
2023-12-31T10:36:04.856Z,1.20
2023-12-31T10:41:15.851Z,1.10
2023-12-31T10:46:23.014Z,0.80
2023-12-31T10:51:26.139Z,1.08
2023-12-31T10:56:30.324Z,0.93
2023-12-31T11:01:33.759Z,1.20
2023-12-31T11:06:37.778Z,1.08
2023-12-31T11:11:41.033Z,0.98
2023-12-31T11:16:57.757Z,1.30
2023-12-31T11:22:28.205Z,0.82
2023-12-31T11:27:35.691Z,1.30
2023-12-31T11:32:38.916Z,1.40
2023-12-31T11:37:42.589Z,1.17
2023-12-31T11:42:45.806Z,1.23
2023-12-31T11:47:48.821Z,1.52
2023-12-31T11:52:54.297Z,1.60
2023-12-31T11:57:57.991Z,1.10
2023-12-31T12:03:04.448Z,1.83
2023-12-31T12:08:09.728Z,1.55
2023-12-31T12:13:13.987Z,1.25
2023-12-31T12:18:28.479Z,1.40
2023-12-31T12:23:31.568Z,1.48
2023-12-31T12:28:35.540Z,1.60
2023-12-31T12:33:38.682Z,1.27
2023-12-31T12:38:43.482Z,1.25
2023-12-31T12:43:47.412Z,1.23
2023-12-31T12:48:51.807Z,1.02
2023-12-31T12:53:55.327Z,1.13
2023-12-31T12:58:59.328Z,1.83
2023-12-31T13:04:02.660Z,1.52
2023-12-31T13:09:06.141Z,2.10
2023-12-31T13:14:09.236Z,1.88
2023-12-31T13:19:12.518Z,2.13
2023-12-31T13:24:17.282Z,1.95
2023-12-31T13:29:20.657Z,2.05
2023-12-31T13:34:23.881Z,1.80
2023-12-31T13:39:26.969Z,2.05
2023-12-31T13:44:30.231Z,2.30
2023-12-31T13:49:33.992Z,1.35
2023-12-31T13:54:37.048Z,1.40
2023-12-31T13:59:40.413Z,1.70
2023-12-31T14:04:46.251Z,2.28
2023-12-31T14:09:49.360Z,2.03
2023-12-31T14:14:52.806Z,1.70
2023-12-31T14:19:56.166Z,2.75
2023-12-31T14:24:59.464Z,2.20
2023-12-31T14:30:02.633Z,2.90
2023-12-31T14:35:07.759Z,2.53
2023-12-31T14:40:11.338Z,1.67
2023-12-31T14:45:14.308Z,2.53
2023-12-31T14:50:17.880Z,2.90
2023-12-31T14:55:21.420Z,2.63
2023-12-31T15:00:25.064Z,2.03
2023-12-31T15:05:28.397Z,2.38
2023-12-31T15:10:31.906Z,1.73
2023-12-31T15:15:35.691Z,2.00
2023-12-31T15:20:41.995Z,2.75
2023-12-31T15:25:46.050Z,2.28
2023-12-31T15:30:49.271Z,2.47
2023-12-31T15:35:53.412Z,2.30
2023-12-31T15:40:57.069Z,2.13
2023-12-31T15:46:00.833Z,1.92
2023-12-31T15:51:05.977Z,2.10
2023-12-31T15:56:09.054Z,1.33
2023-12-31T16:01:12.663Z,1.50
2023-12-31T16:06:16.332Z,1.20
2023-12-31T16:11:20.886Z,1.55
2023-12-31T16:16:24.256Z,1.30
2023-12-31T16:21:27.366Z,1.50
2023-12-31T16:26:30.603Z,1.38
2023-12-31T16:31:34.075Z,1.25
2023-12-31T16:36:37.569Z,1.40
2023-12-31T16:41:41.020Z,1.30
2023-12-31T16:46:44.830Z,1.33
2023-12-31T16:51:48.082Z,1.20
2023-12-31T16:56:51.213Z,1.20
2023-12-31T17:01:55.342Z,1.65
2023-12-31T17:06:58.688Z,1.30
2023-12-31T17:12:02.183Z,1.80
2023-12-31T17:17:05.499Z,1.50
2023-12-31T17:22:08.634Z,1.90
2023-12-31T17:27:13.429Z,1.67
2023-12-31T17:32:16.516Z,1.38
2023-12-31T17:37:19.581Z,1.80
2023-12-31T17:42:22.668Z,1.50
2023-12-31T17:47:26.359Z,1.55
2023-12-31T17:52:29.739Z,1.00
2023-12-31T17:57:32.979Z,1.58
2023-12-31T18:02:36.450Z,0.80
2023-12-31T18:07:39.759Z,1.40
2023-12-31T18:12:43.451Z,0.88
2023-12-31T18:17:46.660Z,1.10
2023-12-31T18:22:49.820Z,1.17
2023-12-31T18:27:52.977Z,1.27
2023-12-31T18:32:55.971Z,1.05
2023-12-31T18:37:59.146Z,1.20
2023-12-31T18:43:02.262Z,1.05
2023-12-31T18:48:06.105Z,1.27
2023-12-31T18:53:09.706Z,1.20
2023-12-31T18:58:12.873Z,1.42
2023-12-31T19:03:16.183Z,1.23
2023-12-31T19:08:20.270Z,1.38
2023-12-31T19:13:23.327Z,1.10
2023-12-31T19:18:26.561Z,1.38
2023-12-31T19:23:30.358Z,1.50
2023-12-31T19:28:33.351Z,0.93
2023-12-31T19:33:36.563Z,1.02
2023-12-31T19:38:39.690Z,1.40
2023-12-31T19:44:04.655Z,1.23
2023-12-31T19:49:07.031Z,1.42
2023-12-31T19:54:12.321Z,1.35
2023-12-31T19:59:17.934Z,1.33
2023-12-31T20:04:21.425Z,1.27
2023-12-31T20:09:24.605Z,1.40
2023-12-31T20:14:27.773Z,1.30
2023-12-31T20:19:31.129Z,1.40
2023-12-31T20:24:34.088Z,1.10
2023-12-31T20:29:37.844Z,1.10
2023-12-31T20:34:41.009Z,0.98
2023-12-31T20:39:44.946Z,1.00
2023-12-31T20:44:48.203Z,0.90
2023-12-31T20:49:51.321Z,0.88
2023-12-31T20:54:54.441Z,0.80
2023-12-31T20:59:57.643Z,1.10
2023-12-31T21:05:01.339Z,1.17
2023-12-31T21:10:07.041Z,1.38
2023-12-31T21:15:10.534Z,1.30
2023-12-31T21:20:14.011Z,2.42
2023-12-31T21:25:17.216Z,3.33
2023-12-31T21:30:21.428Z,2.45
2023-12-31T21:35:24.995Z,1.80
2023-12-31T21:40:28.058Z,2.30
2023-12-31T21:45:31.124Z,3.60
2023-12-31T21:50:34.765Z,2.40
2023-12-31T21:55:49.709Z,1.65
2023-12-31T22:01:02.188Z,3.58
2023-12-31T22:06:13.142Z,2.47
2023-12-31T22:11:16.584Z,3.05
2023-12-31T22:16:21.265Z,2.97
2023-12-31T22:21:24.730Z,3.05
2023-12-31T22:26:27.924Z,2.30
2023-12-31T22:31:31.340Z,2.40
2023-12-31T22:36:34.611Z,2.50
2023-12-31T22:41:37.941Z,1.85
2023-12-31T22:46:41.122Z,2.17
2023-12-31T22:51:44.374Z,1.40
2023-12-31T22:56:47.504Z,1.80
2023-12-31T23:01:50.576Z,0.98
2023-12-31T23:06:54.004Z,0.95
2023-12-31T23:11:57.601Z,0.80
2023-12-31T23:17:00.691Z,1.20
2023-12-31T23:22:04.089Z,1.48
2023-12-31T23:27:07.187Z,0.80
2023-12-31T23:32:12.198Z,1.08
2023-12-31T23:37:15.260Z,0.80
2023-12-31T23:42:18.388Z,0.80
2023-12-31T23:47:21.568Z,0.95
2023-12-31T23:52:24.784Z,1.20
2023-12-31T23:57:27.816Z,1.00
